createdAt,value
2017-10-31T00:01:47.830Z,95847.53
2017-10-31T00:04:15.438Z,95841.66
2017-10-31T00:06:43.028Z,95847.92
2017-10-31T00:09:10.640Z,95845.73
2017-10-31T00:11:38.215Z,95851.72
2017-10-31T00:14:06.015Z,95858.42
2017-10-31T00:16:33.645Z,95856.33
2017-10-31T00:19:01.287Z,95846.73
2017-10-31T00:21:28.908Z,95854.84
2017-10-31T00:23:56.502Z,95854.41
2017-10-31T00:26:24.155Z,95848.56
2017-10-31T00:28:51.730Z,95854.78
2017-10-31T00:31:19.348Z,95852.19
2017-10-31T00:33:46.910Z,95851.70
2017-10-31T00:36:14.523Z,95849.14
2017-10-31T00:38:42.130Z,95856.30
2017-10-31T00:41:09.716Z,95846.77
2017-10-31T00:43:37.267Z,95854.30
2017-10-31T00:46:04.908Z,95844.09
2017-10-31T00:48:32.688Z,95839.88
2017-10-31T00:51:00.678Z,95839.27
2017-10-31T00:53:28.395Z,95838.23
2017-10-31T00:55:56.033Z,95836.80
2017-10-31T00:58:23.612Z,95839.77
2017-10-31T01:00:51.189Z,95846.12
2017-10-31T01:03:18.762Z,95849.65
2017-10-31T01:05:46.438Z,95842.04
2017-10-31T01:08:14.104Z,95835.92
2017-10-31T01:10:41.707Z,95838.11
2017-10-31T01:13:09.267Z,95845.65
2017-10-31T01:15:36.979Z,95848.52
2017-10-31T01:18:04.579Z,95843.67
2017-10-31T01:20:32.174Z,95841.70
2017-10-31T01:22:59.795Z,95848.16
2017-10-31T01:25:27.463Z,95853.35
2017-10-31T01:27:55.109Z,95850.43
2017-10-31T01:30:22.881Z,95846.76
2017-10-31T01:32:50.462Z,95867.23
2017-10-31T01:35:18.010Z,95871.13
2017-10-31T01:37:45.659Z,95866.25
2017-10-31T01:40:13.507Z,95856.41
2017-10-31T01:42:41.360Z,95851.89
2017-10-31T01:45:09.541Z,95858.69
2017-10-31T01:47:37.148Z,95860.58
2017-10-31T01:50:04.754Z,95866.04
2017-10-31T01:52:32.778Z,95869.47
2017-10-31T01:55:00.394Z,95871.73
2017-10-31T01:57:28.054Z,95866.20
2017-10-31T01:59:55.702Z,95862.90
2017-10-31T02:02:23.331Z,95868.08
2017-10-31T02:04:50.918Z,95882.41
2017-10-31T02:07:18.583Z,95887.27
2017-10-31T02:09:46.182Z,95884.16
2017-10-31T02:12:13.780Z,95894.91
2017-10-31T02:14:41.443Z,95866.48
2017-10-31T02:17:09.051Z,95902.63
2017-10-31T02:19:36.825Z,95903.31
2017-10-31T02:22:04.655Z,95906.64
2017-10-31T02:24:32.252Z,95909.99
2017-10-31T02:26:59.958Z,95895.16
2017-10-31T02:29:27.537Z,95902.05
2017-10-31T02:31:55.179Z,95905.84
2017-10-31T02:34:22.766Z,95915.19
2017-10-31T02:36:50.580Z,95919.44
2017-10-31T02:39:20.174Z,95914.08
2017-10-31T02:41:47.978Z,95912.10
2017-10-31T02:44:15.569Z,95924.39
2017-10-31T02:57:00.752Z,95938.63
2017-10-31T03:00:04.830Z,95929.34
2017-10-31T03:02:32.509Z,95934.09
2017-10-31T03:05:00.144Z,95932.19
2017-10-31T03:07:27.766Z,95946.33
2017-10-31T03:09:55.419Z,95931.61
2017-10-31T03:12:23.022Z,95930.58
2017-10-31T03:14:50.792Z,95937.59
2017-10-31T03:17:18.391Z,95943.22
2017-10-31T03:19:46.294Z,95948.81
2017-10-31T03:22:13.914Z,95950.02
2017-10-31T03:24:41.558Z,95927.88
2017-10-31T03:27:09.144Z,95961.57
2017-10-31T03:29:36.847Z,95954.59
2017-10-31T03:32:04.551Z,95944.63
2017-10-31T03:34:32.369Z,95945.52
2017-10-31T03:36:59.976Z,95938.66
2017-10-31T03:39:27.650Z,95948.89
2017-10-31T03:41:55.529Z,95937.00
2017-10-31T03:44:23.357Z,95935.12
2017-10-31T03:46:50.984Z,95936.13
2017-10-31T03:49:18.609Z,95918.41
2017-10-31T03:51:47.115Z,95951.86
2017-10-31T03:54:15.260Z,95954.75
2017-10-31T03:56:42.837Z,95959.95
2017-10-31T03:59:11.323Z,95955.56
2017-10-31T04:01:38.987Z,95956.84
2017-10-31T04:04:06.826Z,95954.00
2017-10-31T04:06:34.496Z,95957.70
2017-10-31T04:09:02.156Z,95965.64
2017-10-31T04:11:29.744Z,95950.73
2017-10-31T04:13:57.463Z,95960.13
2017-10-31T04:16:25.149Z,95961.23
2017-10-31T04:18:52.756Z,95978.44
2017-10-31T04:21:20.334Z,95968.83
2017-10-31T04:23:48.254Z,95969.61
2017-10-31T04:26:15.856Z,95978.41
2017-10-31T04:28:43.544Z,95980.98
2017-10-31T04:31:11.172Z,95986.37
2017-10-31T04:33:39.303Z,95980.40
2017-10-31T04:36:07.115Z,95991.13
2017-10-31T04:38:34.841Z,95986.45
2017-10-31T04:41:02.614Z,95968.72
2017-10-31T04:43:30.261Z,95984.98
2017-10-31T04:45:58.080Z,95976.86
2017-10-31T04:48:25.707Z,95983.12
2017-10-31T04:50:53.543Z,95982.88
2017-10-31T04:53:21.207Z,95984.48
2017-10-31T04:58:29.557Z,96001.49
2017-10-31T05:00:57.192Z,96006.13
2017-10-31T05:03:24.759Z,95997.79
2017-10-31T05:05:52.431Z,95998.05
2017-10-31T05:08:21.007Z,95997.98
2017-10-31T05:10:49.433Z,95989.09
2017-10-31T05:13:17.093Z,95983.05
2017-10-31T05:15:44.780Z,96000.27
2017-10-31T05:18:16.193Z,96001.53
2017-10-31T05:20:43.760Z,96011.19
2017-10-31T05:23:12.977Z,96017.26
2017-10-31T05:25:40.753Z,96020.62
2017-10-31T05:28:08.677Z,96024.16
2017-10-31T05:30:36.330Z,96029.30
2017-10-31T05:33:03.983Z,96036.00
2017-10-31T05:35:31.684Z,96039.27
2017-10-31T05:37:59.326Z,96048.55
2017-10-31T05:40:27.301Z,96050.69
2017-10-31T05:42:54.925Z,96051.29
2017-10-31T05:45:22.667Z,96051.48
2017-10-31T05:47:51.776Z,96054.95
2017-10-31T05:50:19.579Z,96058.19
2017-10-31T05:52:47.491Z,96053.69
2017-10-31T05:55:15.780Z,96052.58
2017-10-31T05:57:43.729Z,96048.14
2017-10-31T06:00:11.494Z,96066.09
2017-10-31T06:02:40.087Z,96054.63
2017-10-31T06:05:07.906Z,96051.34
2017-10-31T06:07:35.691Z,96049.15
2017-10-31T06:10:04.369Z,96054.86
2017-10-31T06:12:32.618Z,96058.58
2017-10-31T06:15:00.957Z,96052.30
2017-10-31T06:17:30.474Z,96070.95
2017-10-31T06:19:59.979Z,96067.14
2017-10-31T06:22:34.488Z,96066.31
2017-10-31T06:25:08.500Z,96071.22
2017-10-31T06:27:41.823Z,96078.07
2017-10-31T06:30:15.293Z,96077.76
2017-10-31T06:32:43.262Z,96073.08
2017-10-31T06:35:11.008Z,96081.91
2017-10-31T06:37:38.680Z,96084.00
2017-10-31T06:40:06.446Z,96102.09
2017-10-31T06:42:34.376Z,96104.48
2017-10-31T06:45:02.172Z,96094.70
2017-10-31T06:47:30.331Z,96091.92
2017-10-31T06:49:59.124Z,96100.28
2017-10-31T06:52:27.339Z,96097.41
2017-10-31T06:54:54.991Z,96095.30
2017-10-31T06:57:22.638Z,96092.32
2017-10-31T06:59:50.366Z,96102.14
2017-10-31T07:02:17.966Z,96085.56
2017-10-31T07:04:46.377Z,96088.72
2017-10-31T07:07:14.879Z,96097.41
2017-10-31T07:09:42.567Z,96094.70
2017-10-31T07:12:10.203Z,96084.80
2017-10-31T07:14:37.986Z,96087.72
2017-10-31T07:17:05.595Z,96080.18
2017-10-31T07:19:34.105Z,96058.03
2017-10-31T07:22:01.788Z,96072.42
2017-10-31T07:24:29.522Z,96072.02
2017-10-31T07:26:57.207Z,96074.05
2017-10-31T07:29:24.853Z,96076.67
2017-10-31T07:31:52.799Z,96076.42
2017-10-31T07:34:20.583Z,96082.43
2017-10-31T07:36:48.231Z,96084.73
2017-10-31T07:39:15.893Z,96077.24
2017-10-31T07:41:43.505Z,96093.77
2017-10-31T07:44:11.113Z,96102.79
2017-10-31T07:46:38.705Z,96107.40
2017-10-31T07:49:06.369Z,96105.98
2017-10-31T07:51:34.145Z,96116.71
2017-10-31T07:54:01.819Z,96118.75
2017-10-31T07:56:29.495Z,96114.33
2017-10-31T07:58:57.204Z,96107.52
2017-10-31T08:01:24.922Z,96109.03
2017-10-31T08:03:52.607Z,96104.91
2017-10-31T08:06:23.048Z,96104.83
2017-10-31T08:08:50.670Z,96100.98
2017-10-31T08:11:18.274Z,96102.01
2017-10-31T08:13:46.462Z,96098.65
2017-10-31T08:16:14.135Z,96100.04
2017-10-31T08:18:41.780Z,96089.28
2017-10-31T08:21:09.559Z,96101.95
2017-10-31T08:23:37.534Z,96103.09
2017-10-31T08:26:05.352Z,96110.14
2017-10-31T08:28:32.941Z,96102.70
2017-10-31T08:31:00.579Z,96103.29
2017-10-31T08:33:28.222Z,96117.09
2017-10-31T08:35:55.884Z,96118.55
2017-10-31T08:38:23.549Z,96116.88
2017-10-31T08:40:51.361Z,96119.33
2017-10-31T08:43:18.990Z,96116.25
2017-10-31T08:45:46.651Z,96113.55
2017-10-31T08:48:14.298Z,96119.76
2017-10-31T08:50:41.893Z,96114.08
2017-10-31T08:53:09.537Z,96115.22
2017-10-31T08:55:37.160Z,96120.09
2017-10-31T08:58:04.760Z,96124.98
2017-10-31T09:00:32.466Z,96127.91
2017-10-31T09:03:00.284Z,96117.62
2017-10-31T09:05:27.978Z,96121.48
2017-10-31T09:07:55.656Z,96112.09
2017-10-31T09:10:23.667Z,96113.52
2017-10-31T09:12:51.316Z,96123.42
2017-10-31T09:15:19.214Z,96126.33
2017-10-31T09:17:46.866Z,96122.70
2017-10-31T09:20:14.618Z,96128.28
2017-10-31T09:22:42.206Z,96114.53
2017-10-31T09:25:09.856Z,96115.97
2017-10-31T09:27:37.455Z,96119.06
2017-10-31T09:30:09.170Z,96112.73
2017-10-31T09:32:36.996Z,96101.34
2017-10-31T09:35:04.779Z,96098.83
2017-10-31T09:37:32.446Z,96100.60
2017-10-31T09:40:00.030Z,96098.70
2017-10-31T09:42:27.652Z,96099.36
2017-10-31T09:44:55.319Z,96113.45
2017-10-31T09:47:23.148Z,96111.13
2017-10-31T09:49:50.803Z,96104.55
2017-10-31T09:52:18.424Z,96089.67
2017-10-31T09:54:46.054Z,96093.16
2017-10-31T09:57:13.583Z,96085.97
2017-10-31T09:59:41.604Z,96094.08
2017-10-31T10:02:09.268Z,96082.55
2017-10-31T10:04:36.930Z,96080.16
2017-10-31T10:07:05.124Z,96090.66
2017-10-31T10:09:32.732Z,96086.97
2017-10-31T10:12:02.342Z,96096.54
2017-10-31T10:14:29.966Z,96091.17
2017-10-31T10:16:57.937Z,96083.58
2017-10-31T10:19:25.692Z,96081.55
2017-10-31T10:21:53.875Z,96083.26
2017-10-31T10:24:21.475Z,96078.52
2017-10-31T10:26:49.694Z,96074.09
2017-10-31T10:29:17.231Z,96069.47
2017-10-31T10:31:44.833Z,96067.99
2017-10-31T10:34:12.407Z,96077.48
2017-10-31T10:36:39.976Z,96069.84
2017-10-31T10:39:07.608Z,96061.91
2017-10-31T10:41:35.264Z,96068.48
2017-10-31T10:44:03.021Z,96057.40
2017-10-31T10:46:30.995Z,96048.55
2017-10-31T10:48:58.594Z,96056.68
2017-10-31T10:51:26.394Z,96055.83
2017-10-31T10:53:53.984Z,96056.02
2017-10-31T10:56:21.554Z,96043.43
2017-10-31T10:58:49.208Z,96039.23
2017-10-31T11:01:16.876Z,96035.34
2017-10-31T11:03:44.980Z,96044.84
2017-10-31T11:06:12.715Z,96038.76
2017-10-31T11:08:40.649Z,96028.58
2017-10-31T11:11:08.221Z,96038.11
2017-10-31T11:13:36.045Z,96027.19
2017-10-31T11:16:03.699Z,96033.91
2017-10-31T11:18:31.547Z,96021.30
2017-10-31T11:20:59.377Z,96028.43
2017-10-31T11:23:27.016Z,96019.38
2017-10-31T11:25:54.881Z,96018.52
2017-10-31T11:28:22.508Z,96000.00
2017-10-31T11:30:50.111Z,96008.66
2017-10-31T11:33:17.718Z,96005.73
2017-10-31T11:35:45.383Z,96007.28
2017-10-31T11:38:13.169Z,96012.35
2017-10-31T11:40:40.933Z,96021.56
2017-10-31T11:43:08.550Z,96010.89
2017-10-31T11:45:36.186Z,96005.44
2017-10-31T11:48:05.056Z,95996.34
2017-10-31T11:50:32.777Z,96001.95
2017-10-31T11:53:00.579Z,95992.86
2017-10-31T11:55:28.247Z,95992.11
2017-10-31T11:57:55.923Z,95990.63
2017-10-31T12:00:23.564Z,95991.61
2017-10-31T12:02:51.164Z,95999.01
2017-10-31T12:05:18.754Z,95987.19
2017-10-31T12:07:46.394Z,95995.97
2017-10-31T12:10:13.991Z,95995.86
2017-10-31T12:12:41.798Z,95991.59
2017-10-31T12:15:09.410Z,95984.95
2017-10-31T12:17:37.012Z,95981.88
2017-10-31T12:20:04.632Z,95992.48
2017-10-31T12:22:32.458Z,95988.95
2017-10-31T12:25:00.067Z,95986.73
2017-10-31T12:27:27.874Z,95995.73
2017-10-31T12:29:55.558Z,95978.30
2017-10-31T12:32:23.377Z,95996.45
2017-10-31T12:34:50.990Z,95990.86
2017-10-31T12:37:18.562Z,95990.89
2017-10-31T12:39:46.307Z,95993.64
2017-10-31T12:42:14.290Z,95999.50
2017-10-31T12:44:41.977Z,95997.48
2017-10-31T12:47:09.737Z,96010.84
2017-10-31T12:49:37.570Z,96003.17
2017-10-31T12:52:05.207Z,95994.63
2017-10-31T12:54:32.931Z,96003.78
2017-10-31T12:57:00.567Z,95988.74
2017-10-31T12:59:28.191Z,95990.89
2017-10-31T13:01:55.884Z,95994.86
2017-10-31T13:04:23.555Z,95994.13
2017-10-31T13:06:51.230Z,95982.55
2017-10-31T13:09:18.932Z,95986.24
2017-10-31T13:11:46.531Z,95981.36
2017-10-31T13:14:14.248Z,95987.23
2017-10-31T13:16:41.927Z,95981.66
2017-10-31T13:19:09.917Z,95983.69
2017-10-31T13:21:37.590Z,95985.93
2017-10-31T13:24:05.277Z,95987.46
2017-10-31T13:26:33.276Z,95979.77
2017-10-31T13:29:02.510Z,95978.45
2017-10-31T13:31:30.746Z,95987.30
2017-10-31T13:33:59.898Z,95980.86
2017-10-31T13:36:27.888Z,95988.94
2017-10-31T13:38:56.014Z,95987.09
2017-10-31T13:41:25.174Z,95984.44
2017-10-31T13:43:53.091Z,95977.78
2017-10-31T13:46:20.754Z,95979.55
2017-10-31T13:48:48.469Z,95970.73
2017-10-31T13:51:16.576Z,95982.34
2017-10-31T13:53:44.396Z,95982.98
2017-10-31T13:56:12.050Z,95983.95
2017-10-31T13:58:39.670Z,95974.41
2017-10-31T14:01:07.304Z,95982.44
2017-10-31T14:03:35.208Z,95979.51
2017-10-31T14:06:03.176Z,95969.09
2017-10-31T14:08:31.581Z,95983.06
2017-10-31T14:10:59.679Z,95978.77
2017-10-31T14:13:27.292Z,95975.73
2017-10-31T14:15:54.994Z,95980.84
2017-10-31T14:18:22.636Z,95987.66
2017-10-31T14:20:51.157Z,95979.06
2017-10-31T14:23:18.763Z,95979.75
2017-10-31T14:25:46.383Z,95976.03
2017-10-31T14:28:14.027Z,95987.53
2017-10-31T14:30:41.690Z,95981.32
2017-10-31T14:33:09.239Z,95974.28
2017-10-31T14:35:37.122Z,95981.85
2017-10-31T14:38:04.841Z,95978.69
2017-10-31T14:40:33.198Z,95974.49
2017-10-31T14:43:01.035Z,95981.59
2017-10-31T14:45:28.706Z,95980.90
2017-10-31T14:47:56.509Z,95973.44
2017-10-31T14:50:24.485Z,95977.66
2017-10-31T14:52:52.153Z,95985.64
2017-10-31T14:55:20.117Z,95984.27
2017-10-31T14:57:48.002Z,95978.88
2017-10-31T15:00:15.663Z,95981.39
2017-10-31T15:02:44.102Z,95986.19
2017-10-31T15:05:11.724Z,95985.95
2017-10-31T15:07:39.354Z,95989.09
2017-10-31T15:10:07.644Z,95979.72
2017-10-31T15:12:35.551Z,95985.30
2017-10-31T15:15:03.202Z,95986.66
2017-10-31T15:17:31.213Z,95991.97
2017-10-31T15:19:59.102Z,95987.38
2017-10-31T15:22:26.791Z,95981.61
2017-10-31T15:24:54.451Z,95986.45
2017-10-31T15:27:22.143Z,95984.57
2017-10-31T15:29:49.775Z,95992.27
2017-10-31T15:32:17.425Z,95993.13
2017-10-31T15:34:45.272Z,95986.41
2017-10-31T15:37:12.899Z,95996.74
2017-10-31T15:39:40.549Z,96004.65
2017-10-31T15:42:09.242Z,96009.63
2017-10-31T15:44:37.155Z,96007.98
2017-10-31T15:47:04.884Z,96012.92
2017-10-31T15:49:32.711Z,96012.66
2017-10-31T15:52:00.370Z,96014.09
2017-10-31T15:54:28.359Z,96015.72
2017-10-31T15:56:55.994Z,96019.80
2017-10-31T15:59:24.032Z,96026.03
2017-10-31T16:01:51.756Z,96030.37
2017-10-31T16:04:19.743Z,96030.43
2017-10-31T16:06:47.541Z,96029.27
2017-10-31T16:09:15.345Z,96033.97
2017-10-31T16:11:43.159Z,96031.33
2017-10-31T16:14:12.352Z,96032.00
2017-10-31T16:16:39.966Z,96039.17
2017-10-31T16:19:07.587Z,96036.67
2017-10-31T16:21:35.179Z,96041.25
2017-10-31T16:24:03.504Z,96041.94
2017-10-31T16:26:31.984Z,96051.86
2017-10-31T16:28:59.875Z,96051.03
2017-10-31T16:31:31.622Z,96047.39
2017-10-31T16:33:59.599Z,96048.38
2017-10-31T16:36:27.244Z,96050.97
2017-10-31T16:38:55.397Z,96053.50
2017-10-31T16:41:23.979Z,96050.40
2017-10-31T16:43:51.801Z,96055.88
2017-10-31T16:46:19.523Z,96065.00
2017-10-31T16:48:47.150Z,96061.14
2017-10-31T16:51:15.242Z,96066.04
2017-10-31T16:53:43.646Z,96082.31
2017-10-31T16:56:11.609Z,96063.75
2017-10-31T16:58:39.458Z,96076.18
2017-10-31T17:01:07.167Z,96078.82
2017-10-31T17:03:34.967Z,96073.98
2017-10-31T17:06:02.622Z,96075.09
2017-10-31T17:08:32.235Z,96082.32
2017-10-31T17:10:59.859Z,96076.45
2017-10-31T17:13:39.394Z,96073.76
2017-10-31T17:18:42.941Z,96078.91
2017-10-31T17:21:39.798Z,96080.54
2017-10-31T17:24:16.605Z,96082.77
2017-10-31T17:26:44.209Z,96080.94
2017-10-31T17:29:12.364Z,96082.15
2017-10-31T17:31:40.001Z,96078.31
2017-10-31T17:34:07.977Z,96090.23
2017-10-31T17:36:35.756Z,96090.39
2017-10-31T17:39:03.757Z,96093.94
2017-10-31T17:41:31.323Z,96095.13
2017-10-31T17:43:58.941Z,96087.73
2017-10-31T17:46:26.855Z,96086.78
2017-10-31T17:48:54.638Z,96094.48
2017-10-31T17:51:22.342Z,96095.17
2017-10-31T17:53:50.045Z,96107.18
2017-10-31T17:56:17.750Z,96105.84
2017-10-31T17:58:45.572Z,96090.67
2017-10-31T18:01:13.307Z,96083.49
2017-10-31T18:03:40.917Z,96116.94
2017-10-31T18:06:08.694Z,96111.83
2017-10-31T18:08:36.338Z,96117.61
2017-10-31T18:11:04.225Z,96129.13
2017-10-31T18:13:31.868Z,96128.09
2017-10-31T18:15:59.457Z,96140.23
2017-10-31T18:18:27.521Z,96130.88
2017-10-31T18:20:55.148Z,96148.30
2017-10-31T18:23:22.782Z,96127.20
2017-10-31T18:25:51.564Z,96136.91
2017-10-31T18:28:23.621Z,96142.69
2017-10-31T18:30:51.323Z,96141.30
2017-10-31T18:33:19.193Z,96139.08
2017-10-31T18:35:46.844Z,96140.48
2017-10-31T18:38:14.484Z,96136.66
2017-10-31T18:40:42.316Z,96145.59
2017-10-31T18:43:09.884Z,96144.01
2017-10-31T18:45:37.480Z,96149.41
2017-10-31T18:48:05.126Z,96153.75
2017-10-31T18:50:32.936Z,96154.31
2017-10-31T18:53:00.537Z,96148.04
2017-10-31T18:55:28.120Z,96151.37
2017-10-31T18:57:55.872Z,96148.91
2017-10-31T19:00:24.534Z,96149.86
2017-10-31T19:05:37.099Z,96168.89
2017-10-31T19:08:08.013Z,96161.70
2017-10-31T19:14:08.652Z,96155.91
2017-10-31T19:16:36.425Z,96152.41
2017-10-31T19:19:04.651Z,96151.91
2017-10-31T19:21:32.259Z,96162.14
2017-10-31T19:23:59.980Z,96162.09
2017-10-31T19:26:28.249Z,96158.22
2017-10-31T19:28:55.869Z,96168.97
2017-10-31T19:31:24.630Z,96169.64
2017-10-31T19:33:53.914Z,96169.03
2017-10-31T19:36:21.797Z,96160.77
2017-10-31T19:38:49.424Z,96174.73
2017-10-31T19:41:17.260Z,96170.67
2017-10-31T19:43:44.949Z,96166.00
2017-10-31T19:46:12.675Z,96167.52
2017-10-31T19:48:40.582Z,96182.02
2017-10-31T19:51:08.144Z,96169.00
2017-10-31T19:53:35.787Z,96171.47
2017-10-31T19:56:03.390Z,96169.93
2017-10-31T19:58:30.986Z,96168.74
2017-10-31T20:00:58.591Z,96174.06
2017-10-31T20:03:26.317Z,96171.81
2017-10-31T20:05:53.895Z,96180.66
2017-10-31T20:08:21.592Z,96178.82
2017-10-31T20:10:49.366Z,96183.44
2017-10-31T20:13:17.051Z,96162.61
2017-10-31T20:15:45.550Z,96180.48
2017-10-31T20:18:13.990Z,96169.41
2017-10-31T20:20:42.419Z,96167.85
2017-10-31T20:23:10.025Z,96168.56
2017-10-31T20:25:37.603Z,96165.92
2017-10-31T20:28:05.410Z,96165.34
2017-10-31T20:30:33.591Z,96173.09
2017-10-31T20:33:01.230Z,96167.48
2017-10-31T20:35:29.071Z,96161.22
2017-10-31T20:37:56.678Z,96171.92
2017-10-31T20:40:25.180Z,96173.36
2017-10-31T20:42:53.032Z,96170.01
2017-10-31T20:45:20.622Z,96166.55
2017-10-31T20:47:48.265Z,96174.30
2017-10-31T20:50:16.051Z,96180.36
2017-10-31T20:52:43.789Z,96177.53
2017-10-31T20:55:11.318Z,96167.00
2017-10-31T20:57:39.680Z,96173.04
2017-10-31T21:00:10.122Z,96183.06
2017-10-31T21:02:38.671Z,96186.22
2017-10-31T21:05:06.238Z,96183.70
2017-10-31T21:07:33.846Z,96193.25
2017-10-31T21:10:02.006Z,96178.69
2017-10-31T21:12:29.745Z,96182.05
2017-10-31T21:14:57.562Z,96187.33
2017-10-31T21:17:26.121Z,96189.17
2017-10-31T21:19:54.634Z,96183.00
2017-10-31T21:22:22.488Z,96189.64
2017-10-31T21:24:50.024Z,96187.44
2017-10-31T21:27:17.754Z,96172.74
2017-10-31T21:29:45.344Z,96179.55
2017-10-31T21:32:13.007Z,96185.61
2017-10-31T21:34:40.608Z,96182.06
2017-10-31T21:37:08.443Z,96192.50
2017-10-31T21:39:36.093Z,96191.42
2017-10-31T21:42:04.148Z,96186.45
2017-10-31T21:44:32.619Z,96181.87
2017-10-31T21:47:00.319Z,96188.79
2017-10-31T21:49:28.210Z,96187.40
2017-10-31T21:51:55.865Z,96181.52
2017-10-31T21:54:23.494Z,96181.60
2017-10-31T21:56:52.136Z,96188.24
2017-10-31T21:59:20.284Z,96183.72
2017-10-31T22:01:48.671Z,96191.92
2017-10-31T22:04:16.285Z,96187.44
2017-10-31T22:06:43.845Z,96189.77
2017-10-31T22:09:11.429Z,96184.75
2017-10-31T22:15:08.303Z,96191.51
2017-10-31T22:17:35.916Z,96183.66
2017-10-31T22:20:03.705Z,96180.82
2017-10-31T22:22:31.330Z,96186.38
2017-10-31T22:24:58.923Z,96186.69
2017-10-31T22:27:26.492Z,96188.76
2017-10-31T22:29:54.161Z,96186.52
2017-10-31T22:32:21.827Z,96182.98
2017-10-31T22:34:49.422Z,96179.59
2017-10-31T22:37:17.171Z,96177.77
2017-10-31T22:39:44.785Z,96177.17
2017-10-31T22:42:12.400Z,96174.92
2017-10-31T22:44:40.037Z,96172.56
2017-10-31T22:47:07.646Z,96166.23
2017-10-31T22:49:35.425Z,96167.81
2017-10-31T22:52:03.023Z,96161.89
2017-10-31T22:54:30.857Z,96165.70
2017-10-31T22:56:58.671Z,96158.08
2017-10-31T22:59:26.247Z,96169.83
2017-10-31T23:01:53.853Z,96166.23
2017-10-31T23:04:22.567Z,96173.19
2017-10-31T23:06:50.354Z,96167.53
2017-10-31T23:09:17.999Z,96167.34
2017-10-31T23:11:45.541Z,96166.46
2017-10-31T23:14:13.371Z,96166.38
2017-10-31T23:16:40.978Z,96162.48
2017-10-31T23:19:08.616Z,96167.35
2017-10-31T23:21:36.391Z,96165.12
2017-10-31T23:24:04.026Z,96163.19
2017-10-31T23:26:31.784Z,96159.51
2017-10-31T23:28:59.376Z,96154.58
2017-10-31T23:31:27.189Z,96156.38
2017-10-31T23:33:54.736Z,96160.28
2017-10-31T23:36:22.522Z,96159.06
2017-10-31T23:38:50.151Z,96155.75
2017-10-31T23:41:17.713Z,96152.80
2017-10-31T23:43:45.328Z,96159.67
2017-10-31T23:46:13.003Z,96153.24
2017-10-31T23:48:40.639Z,96156.20
2017-10-31T23:51:08.313Z,96158.98
2017-10-31T23:53:35.955Z,96153.33
2017-10-31T23:56:03.574Z,96156.06
2017-10-31T23:58:31.137Z,96160.14
